Time;durP1;ratioP1;P1;durP2;ratioP2;P2;SDS_P1;SDS_P2;PMS_P1;PMS_P2;Temp;Humidity;BMP_temperature;BMP_pressure;BME280_temperature;BME280_humidity;BME280_pressure;Samples;Min_cycle;Max_cycle;Signal;HPM_P1;HPM_P2
2022/06/11 00:01:35;;;;;;;28.70;17.35;;;;;;;20.79;45.31;99627.20;1618909;88;21119;-71
2022/06/11 00:04:06;;;;;;;22.73;18.48;;;;;;;20.79;46.43;99632.11;1596277;88;21086;-73
2022/06/11 00:06:37;;;;;;;21.87;17.52;;;;;;;20.77;45.77;99630.80;1594079;90;20943;-73
2022/06/11 00:09:05;;;;;;;23.75;16.37;;;;;;;20.74;45.92;99630.09;1593739;90;21082;-73
2022/06/11 00:11:34;;;;;;;23.92;16.95;;;;;;;20.73;44.85;99629.28;1594065;88;21003;-71
2022/06/11 00:14:02;;;;;;;24.57;17.98;;;;;;;20.75;44.33;99628.41;1616475;88;21059;-72
2022/06/11 00:16:29;;;;;;;26.23;18.02;;;;;;;20.78;44.61;99626.39;1600624;88;21094;-73
2022/06/11 00:18:56;;;;;;;24.52;17.57;;;;;;;20.77;44.83;99626.14;1605685;88;22013;-71
2022/06/11 00:21:25;;;;;;;24.60;18.27;;;;;;;20.75;45.25;99624.88;1610889;88;21122;-70
2022/06/11 00:23:52;;;;;;;24.18;17.42;;;;;;;20.73;44.96;99616.98;1618195;88;21070;-71
2022/06/11 00:26:20;;;;;;;22.45;16.57;;;;;;;20.74;44.89;99616.42;1614684;88;21061;-72
2022/06/11 00:28:47;;;;;;;27.13;17.15;;;;;;;20.74;44.83;99617.23;1616262;88;21168;-71
2022/06/11 00:31:14;;;;;;;28.38;18.55;;;;;;;20.72;44.64;99613.22;1638708;87;21915;-71
2022/06/11 00:33:40;;;;;;;25.40;18.85;;;;;;;20.69;44.63;99617.38;1628202;87;21064;-71
2022/06/11 00:36:09;;;;;;;23.90;18.50;;;;;;;20.66;44.90;99618.02;1616457;88;21545;-70
2022/06/11 00:38:37;;;;;;;24.75;17.50;;;;;;;20.64;44.71;99622.18;1615719;88;21065;-69
2022/06/11 00:41:04;;;;;;;26.65;18.48;;;;;;;20.63;44.46;99619.20;1633523;87;21055;-71
2022/06/11 00:43:32;;;;;;;25.35;18.17;;;;;;;20.63;44.61;99623.30;1643467;87;21240;-72
2022/06/11 00:46:10;;;;;;;20.55;18.32;;;;;;;20.64;44.38;99618.08;1618496;87;21056;-72
2022/06/11 00:48:40;;;;;;;30.80;20.17;;;;;;;20.63;43.86;99620.56;1616089;88;21043;-72
2022/06/11 00:51:15;;;;;;;25.55;17.45;;;;;;;20.64;43.74;99619.45;1635824;87;21128;-72
2022/06/11 00:53:58;;;;;;;21.80;17.00;;;;;;;20.67;43.97;99625.66;1624599;87;21701;-72
2022/06/11 00:56:34;;;;;;;21.90;17.73;;;;;;;20.66;44.07;99624.05;1592815;88;21353;-72
2022/06/11 00:59:03;;;;;;;21.05;16.85;;;;;;;20.68;44.22;99629.42;1615222;87;21048;-70
2022/06/11 01:01:31;;;;;;;23.75;19.35;;;;;;;20.68;44.30;99632.16;1620718;87;21057;-73
2022/06/11 01:04:02;;;;;;;24.18;17.77;;;;;;;20.58;45.04;99629.72;1615330;88;21101;-72
2022/06/11 01:06:51;;;;;;;28.23;19.80;;;;;;;20.49;45.13;99634.91;1616491;88;21547;-70
2022/06/11 01:09:26;;;;;;;26.77;17.77;;;;;;;20.39;45.51;99630.54;1616474;88;21657;-70
2022/06/11 01:12:14;;;;;;;28.57;20.82;;;;;;;20.31;45.52;99631.32;1592441;88;21143;-70
2022/06/11 01:14:48;;;;;;;26.07;17.40;;;;;;;20.30;45.92;99631.04;1592155;90;21060;-73
2022/06/11 01:17:42;;;;;;;20.68;17.10;;;;;;;20.37;45.01;99633.61;1592405;90;21042;-70
2022/06/11 01:20:43;;;;;;;22.30;17.80;;;;;;;20.42;45.43;99635.39;1605120;88;21016;-70
2022/06/11 01:23:45;;;;;;;28.42;17.73;;;;;;;20.42;45.66;99636.20;1624979;86;21654;-69
2022/06/11 01:26:46;;;;;;;26.17;19.32;;;;;;;20.42;46.30;99648.50;1595061;89;21127;-71
2022/06/11 01:29:54;;;;;;;19.10;16.62;;;;;;;20.38;46.40;99648.08;1595264;88;21164;-72
2022/06/11 01:32:29;;;;;;;26.15;17.73;;;;;;;20.28;46.33;99652.42;1620168;88;21042;-74
2022/06/11 01:35:19;;;;;;;24.07;19.80;;;;;;;20.18;47.01;99649.41;1595160;90;21209;-71
2022/06/11 01:37:51;;;;;;;24.00;18.77;;;;;;;20.01;47.15;99652.83;1607688;88;21194;-71
2022/06/11 01:40:57;;;;;;;27.67;20.00;;;;;;;20.02;47.01;99654.45;1610133;89;20952;-70
2022/06/11 01:43:37;;;;;;;20.05;17.10;;;;;;;20.05;46.99;99663.15;1568465;91;21094;-70
2022/06/11 01:46:09;;;;;;;29.98;19.42;;;;;;;20.03;47.39;99662.89;1567157;90;21062;-71
2022/06/11 01:48:36;;;;;;;23.60;19.77;;;;;;;19.88;47.45;99659.19;1597567;88;21508;-73
2022/06/11 01:51:15;;;;;;;26.70;20.40;;;;;;;19.81;47.83;99660.73;1590912;90;21083;-72
2022/06/11 01:53:48;;;;;;;30.32;21.15;;;;;;;19.71;48.23;99658.28;1593318;88;22181;-71
2022/06/11 01:56:22;;;;;;;22.60;18.95;;;;;;;19.66;48.48;99663.30;1616568;88;22260;-71
2022/06/11 01:59:19;;;;;;;25.80;17.95;;;;;;;19.71;48.03;99661.01;1590913;89;21026;-73
2022/06/11 02:01:59;;;;;;;25.15;17.37;;;;;;;19.75;47.98;99660.63;1575880;90;21052;-73
2022/06/11 02:04:40;;;;;;;23.02;18.00;;;;;;;19.79;48.22;99662.98;1592478;90;21182;-71
2022/06/11 02:07:29;;;;;;;33.33;18.60;;;;;;;19.82;48.09;99657.70;1584811;89;21002;-72
2022/06/11 02:10:06;;;;;;;22.52;18.92;;;;;;;19.87;48.08;99660.30;1618233;88;21154;-71
2022/06/11 02:12:40;;;;;;;;;;;;;;;19.94;47.99;99664.77;1620438;88;21058;-72
2022/06/11 02:15:31;;;;;;;33.80;18.95;;;;;;;19.99;48.29;99666.02;1610745;88;20263;-73
2022/06/11 02:18:01;;;;;;;24.10;16.73;;;;;;;20.01;48.46;99660.22;1596673;89;21671;-74
2022/06/11 02:20:34;;;;;;;29.45;20.35;;;;;;;20.07;47.91;99658.16;1591118;90;21127;-72
2022/06/11 02:23:10;;;;;;;21.35;16.15;;;;;;;20.02;48.47;99664.01;1589272;90;21628;-73
2022/06/11 02:25:43;;;;;;;25.55;17.70;;;;;;;19.90;48.88;99669.80;1587008;90;21588;-74
2022/06/11 02:28:12;;;;;;;27.80;18.40;;;;;;;19.90;48.34;99664.34;1601701;89;21201;-73
2022/06/11 02:30:42;;;;;;;24.47;16.40;;;;;;;19.93;48.21;99669.98;1601563;89;21137;-72
2022/06/11 02:33:11;;;;;;;27.37;16.23;;;;;;;19.97;48.27;99670.96;1579639;90;21068;-74
2022/06/11 02:35:59;;;;;;;21.48;17.45;;;;;;;20.03;48.15;99675.19;1580026;90;21116;-72
2022/06/11 02:38:27;;;;;;;22.37;16.17;;;;;;;20.08;48.43;99673.44;1583012;89;21064;-72
2022/06/11 02:41:02;;;;;;;20.65;16.85;;;;;;;20.14;48.10;99674.36;1579657;90;21579;-71
2022/06/11 02:43:29;;;;;;;25.23;16.87;;;;;;;20.19;48.12;99678.30;1579674;90;21244;-73
2022/06/11 02:45:57;;;;;;;23.85;16.95;;;;;;;20.25;48.00;99684.44;1582439;89;21015;-73
2022/06/11 02:48:24;;;;;;;19.92;16.42;;;;;;;20.29;47.89;99683.50;1579375;90;21091;-73
2022/06/11 02:50:50;;;;;;;22.40;15.78;;;;;;;20.34;47.81;99681.22;1579617;90;21031;-72
2022/06/11 02:53:17;;;;;;;20.17;15.70;;;;;;;20.40;47.77;99680.77;1579721;90;21151;-73
2022/06/11 02:55:45;;;;;;;22.62;15.72;;;;;;;20.43;47.95;99682.87;1579716;89;21167;-71
2022/06/11 02:58:12;;;;;;;24.05;16.20;;;;;;;20.47;47.82;99677.59;1599870;89;21007;-72
2022/06/11 03:00:44;;;;;;;20.23;14.63;;;;;;;20.52;47.79;99687.02;1579716;90;21028;-74
2022/06/11 03:03:11;;;;;;;21.77;15.23;;;;;;;20.55;47.48;99690.48;1579507;90;21053;-75
2022/06/11 03:05:38;;;;;;;30.85;14.70;;;;;;;20.56;47.48;99678.99;1579877;90;21438;-75
2022/06/11 03:08:07;;;;;;;19.77;13.55;;;;;;;20.57;47.29;99682.78;1579167;90;21100;-75
2022/06/11 03:10:36;;;;;;;20.65;16.80;;;;;;;20.60;47.55;99687.61;1582670;89;21070;-74
2022/06/11 03:13:03;;;;;;;28.20;15.58;;;;;;;20.55;47.41;99687.75;1577834;90;21012;-75
2022/06/11 03:15:30;;;;;;;19.00;15.25;;;;;;;20.56;47.29;99690.73;1580558;90;21052;-73
2022/06/11 03:17:59;;;;;;;23.77;17.10;;;;;;;20.62;47.41;99683.20;1580141;89;21039;-73
2022/06/11 03:20:28;;;;;;;29.48;17.23;;;;;;;20.62;47.44;99692.77;1582129;89;21548;-74
2022/06/11 03:22:55;;;;;;;22.30;14.55;;;;;;;20.64;47.27;99685.04;1580752;90;21621;-74
2022/06/11 03:25:22;;;;;;;21.45;16.12;;;;;;;20.61;47.32;99682.39;1580372;90;21133;-74
2022/06/11 03:27:50;;;;;;;22.45;16.37;;;;;;;20.63;47.57;99681.50;1564838;90;21170;-71
2022/06/11 03:30:18;;;;;;;22.58;17.70;;;;;;;20.65;47.48;99689.39;1579898;89;21103;-74
2022/06/11 03:32:46;;;;;;;19.52;15.40;;;;;;;20.70;47.33;99689.25;1583489;89;21246;-72
2022/06/11 03:35:13;;;;;;;18.98;16.12;;;;;;;20.76;47.17;99692.09;1574612;90;21611;-69
2022/06/11 03:37:40;;;;;;;21.40;16.85;;;;;;;20.84;47.17;99694.84;1574654;90;21094;-71
2022/06/11 03:40:11;;;;;;;27.42;17.12;;;;;;;20.87;47.37;99694.20;1586193;89;21018;-72
2022/06/11 03:42:37;;;;;;;23.75;15.38;;;;;;;20.88;47.50;99695.00;1598860;89;21137;-72
2022/06/11 03:45:06;;;;;;;19.82;15.18;;;;;;;20.94;47.31;99694.30;1600922;89;21119;-70
2022/06/11 03:47:36;;;;;;;23.00;16.10;;;;;;;21.01;47.35;99693.25;1593631;88;21621;-70
2022/06/11 03:50:03;;;;;;;20.27;14.98;;;;;;;21.09;47.19;99697.96;1584519;89;21054;-72
2022/06/11 03:52:30;;;;;;;33.95;16.55;;;;;;;21.14;47.09;99700.02;1597931;88;21379;-75
2022/06/11 03:54:57;;;;;;;18.90;14.75;;;;;;;21.20;46.97;99697.91;1595391;89;21088;-73
2022/06/11 03:57:24;;;;;;;24.98;16.82;;;;;;;21.25;46.89;99699.94;1590137;89;21232;-70
2022/06/11 03:59:51;;;;;;;19.52;13.98;;;;;;;21.32;47.06;99703.56;1583292;89;21031;-70
2022/06/11 04:02:17;;;;;;;24.43;15.00;;;;;;;21.36;46.87;99702.36;1560933;89;21458;-74
2022/06/11 04:04:44;;;;;;;17.07;13.40;;;;;;;21.42;46.80;99701.89;1572303;89;21006;-72
2022/06/11 04:07:12;;;;;;;28.00;14.85;;;;;;;21.48;46.69;99702.55;1587163;90;21043;-76
2022/06/11 04:09:43;;;;;;;19.10;13.03;;;;;;;21.54;46.61;99693.02;1582107;90;21855;-77
2022/06/11 04:12:15;;;;;;;15.83;12.58;;;;;;;21.60;46.42;99700.77;1599227;89;21093;-75
2022/06/11 04:14:39;;;;;;;20.35;13.18;;;;;;;21.66;46.12;99702.22;1540237;90;21552;-74
2022/06/11 04:17:10;;;;;;;17.07;13.68;;;;;;;21.72;45.91;99698.75;1580091;88;21108;-73
2022/06/11 04:19:40;;;;;;;19.30;11.38;;;;;;;21.78;45.78;99702.91;1585903;89;21051;-73
2022/06/11 04:22:07;;;;;;;15.15;11.65;;;;;;;21.85;45.78;99703.80;1586389;90;22242;-74
2022/06/11 04:24:35;;;;;;;15.88;12.60;;;;;;;21.90;45.64;99701.71;1565107;91;21002;-73
2022/06/11 04:27:04;;;;;;;28.27;12.93;;;;;;;21.98;45.61;99700.11;1611072;87;21017;-69
2022/06/11 04:29:34;;;;;;;19.60;12.10;;;;;;;22.04;45.53;99702.92;1640787;87;21051;-68
2022/06/11 04:32:02;;;;;;;17.62;11.60;;;;;;;22.10;45.50;99705.17;1619515;88;21095;-68
2022/06/11 04:34:31;;;;;;;20.05;10.65;;;;;;;22.18;45.46;99715.86;1605111;88;21289;-67
2022/06/11 04:36:57;;;;;;;19.30;12.58;;;;;;;22.25;45.31;99705.22;1593541;90;21330;-67
2022/06/11 04:39:27;;;;;;;17.85;10.80;;;;;;;22.32;45.24;99706.88;1593884;90;21078;-68
2022/06/11 04:41:55;;;;;;;18.42;12.05;;;;;;;22.38;45.15;99710.25;1572750;90;21121;-68
2022/06/11 04:44:22;;;;;;;18.87;11.08;;;;;;;22.45;44.99;99713.27;1591722;90;21618;-74
2022/06/11 04:46:49;;;;;;;21.85;11.88;;;;;;;22.52;44.84;99714.95;1599390;88;22305;-73
2022/06/11 04:49:16;;;;;;;13.88;11.20;;;;;;;22.62;44.48;99711.85;1601969;88;21130;-73
2022/06/11 04:51:43;;;;;;;14.98;9.95;;;;;;;22.73;44.22;99709.59;1609110;89;21024;-74
2022/06/11 04:54:10;;;;;;;14.85;11.90;;;;;;;22.82;44.12;99708.97;1634633;87;21082;-72
2022/06/11 04:56:36;;;;;;;18.17;12.80;;;;;;;22.96;43.98;99709.55;1636657;87;21010;-73
2022/06/11 04:59:03;;;;;;;18.25;10.88;;;;;;;23.04;44.08;99714.97;1637189;87;21734;-73
2022/06/11 05:01:31;;;;;;;15.20;10.48;;;;;;;23.12;44.11;99716.05;1620769;88;20990;-73
2022/06/11 05:03:57;;;;;;;17.05;11.70;;;;;;;23.22;43.94;99714.29;1602703;88;21324;-75
2022/06/11 05:06:29;;;;;;;14.07;10.05;;;;;;;23.29;43.79;99714.58;1608619;89;21108;-73
2022/06/11 05:08:55;;;;;;;12.40;9.75;;;;;;;23.37;43.63;99707.41;1603425;88;21031;-74
2022/06/11 05:11:22;;;;;;;14.43;10.63;;;;;;;23.44;42.95;99706.31;1618284;88;22461;-74
2022/06/11 05:13:49;;;;;;;20.65;10.05;;;;;;;23.54;42.38;99713.38;1615439;88;21047;-75
2022/06/11 05:16:17;;;;;;;18.65;10.15;;;;;;;23.66;41.65;99717.55;1572644;90;21079;-73
2022/06/11 05:18:45;;;;;;;18.55;10.75;;;;;;;23.80;40.61;99715.32;1609659;89;21557;-73
2022/06/11 05:21:11;;;;;;;13.45;10.10;;;;;;;23.93;39.86;99717.00;1609908;89;21132;-76
2022/06/11 05:23:39;;;;;;;12.93;9.43;;;;;;;24.03;38.94;99718.52;1609499;89;21123;-75
2022/06/11 05:26:06;;;;;;;12.90;7.70;;;;;;;24.13;38.63;99720.25;1589043;88;21243;-74
2022/06/11 05:28:35;;;;;;;11.95;7.95;;;;;;;24.25;38.24;99722.27;1642767;87;21124;-73
2022/06/11 05:31:02;;;;;;;12.93;8.25;;;;;;;24.31;38.87;99726.42;1634537;87;21135;-76
2022/06/11 05:33:29;;;;;;;14.50;9.15;;;;;;;24.31;39.05;99729.17;1596007;88;21606;-74
2022/06/11 05:35:56;;;;;;;13.62;7.95;;;;;;;24.35;38.76;99728.72;1617341;88;21772;-75
2022/06/11 05:38:25;;;;;;;17.60;9.48;;;;;;;24.41;39.41;99736.98;1616287;88;21112;-77
2022/06/11 05:40:51;;;;;;;14.73;10.28;;;;;;;24.51;37.83;99732.99;1616799;88;21562;-75
2022/06/11 05:43:18;;;;;;;13.88;8.75;;;;;;;24.63;37.40;99732.99;1616729;88;21088;-75
2022/06/11 05:45:53;;;;;;;10.50;8.78;;;;;;;24.72;36.47;99734.49;1627244;87;21124;-74
2022/06/11 05:48:23;;;;;;;17.20;9.85;;;;;;;24.83;36.29;99732.09;1616730;88;21056;-75
2022/06/11 05:50:52;;;;;;;18.70;12.82;;;;;;;24.90;37.15;99720.53;1620629;87;20988;-73
2022/06/11 05:53:20;;;;;;;17.45;8.58;;;;;;;24.96;37.44;99725.48;1615849;87;21044;-75
2022/06/11 05:55:47;;;;;;;17.25;9.78;;;;;;;25.02;37.40;99726.86;1616602;87;21049;-75
2022/06/11 05:58:21;;;;;;;12.25;9.58;;;;;;;25.07;37.66;99721.12;1616058;88;21073;-73
2022/06/11 06:00:49;;;;;;;;;;;;;;;25.08;38.03;99727.43;1617815;87;21770;-72
2022/06/11 06:03:16;;;;;;;20.15;11.97;;;;;;;25.14;38.10;99727.41;1616349;88;20167;-73
2022/06/11 06:05:43;;;;;;;13.35;9.83;;;;;;;25.21;37.64;99729.02;1616345;88;21099;-74
2022/06/11 06:08:11;;;;;;;13.65;10.93;;;;;;;25.32;37.90;99725.22;1616197;87;21093;-72
2022/06/11 06:10:41;;;;;;;19.73;11.18;;;;;;;25.43;37.79;99721.63;1626645;87;21530;-72
2022/06/11 06:13:51;;;;;;;15.43;12.85;;;;;;;25.56;37.51;99725.97;1644172;87;21120;-74
2022/06/11 06:15:40;;;;;;;16.45;13.22;;;;;;;25.67;36.83;99724.91;1615361;87;21113;-73
2022/06/11 06:18:07;;;;;;;22.37;15.38;;;;;;;25.77;36.91;99722.23;1643715;87;21075;-74
2022/06/11 06:20:34;;;;;;;24.00;15.53;;;;;;;25.87;36.59;99723.12;1614955;88;21148;-73
2022/06/11 06:23:01;;;;;;;19.00;13.98;;;;;;;25.97;35.75;99726.18;1616224;88;20973;-73
2022/06/11 06:25:28;;;;;;;24.80;15.10;;;;;;;26.05;35.75;99725.22;1616506;88;21813;-73
2022/06/11 06:27:55;;;;;;;23.73;16.12;;;;;;;26.16;35.34;99727.46;1612115;88;21012;-73
2022/06/11 06:30:21;;;;;;;21.05;14.95;;;;;;;26.24;35.01;99722.39;1598297;87;21109;-71
2022/06/11 06:32:48;;;;;;;16.97;15.08;;;;;;;26.36;34.21;99722.33;1603156;87;21149;-76
2022/06/11 06:35:15;;;;;;;17.12;15.32;;;;;;;26.46;34.00;99725.95;1599637;88;21038;-74
2022/06/11 06:37:42;;;;;;;22.35;15.95;;;;;;;26.54;33.47;99724.16;1615477;87;21640;-72
2022/06/11 06:40:11;;;;;;;20.75;16.85;;;;;;;26.61;32.95;99727.92;1589212;90;21041;-73
2022/06/11 06:42:39;;;;;;;20.68;17.92;;;;;;;26.67;32.66;99722.34;1613372;88;21106;-71
2022/06/11 06:45:06;;;;;;;19.00;16.52;;;;;;;26.75;32.60;99725.52;1627522;87;21053;-72
2022/06/11 06:47:35;;;;;;;28.60;17.82;;;;;;;26.83;32.73;99720.95;1625429;88;21025;-70
2022/06/11 06:50:04;;;;;;;27.05;16.85;;;;;;;26.92;32.47;99730.45;1615365;88;21454;-73
2022/06/11 06:52:30;;;;;;;22.20;17.98;;;;;;;27.01;31.90;99722.20;1597992;89;21629;-73
2022/06/11 06:54:57;;;;;;;22.17;16.37;;;;;;;27.13;31.05;99730.39;1600718;89;21062;-75
2022/06/11 06:57:24;;;;;;;20.55;16.87;;;;;;;27.20;31.06;99728.36;1600765;89;21086;-72
2022/06/11 06:59:50;;;;;;;21.07;15.58;;;;;;;27.26;30.71;99733.26;1610442;88;21606;-73
2022/06/11 07:02:18;;;;;;;18.10;14.93;;;;;;;27.27;30.19;99733.48;1617047;88;21026;-73
2022/06/11 07:04:44;;;;;;;21.60;15.08;;;;;;;27.28;29.47;99730.95;1600524;89;21060;-74
2022/06/11 07:07:15;;;;;;;23.55;14.25;;;;;;;27.36;29.48;99729.70;1602947;88;20963;-72
2022/06/11 07:09:42;;;;;;;13.53;12.05;;;;;;;27.44;29.65;99728.69;1608232;88;21088;-73
2022/06/11 07:12:09;;;;;;;12.80;10.35;;;;;;;27.50;28.96;99734.20;1601190;89;21089;-71
2022/06/11 07:14:37;;;;;;;12.07;8.63;;;;;;;27.56;27.87;99736.32;1578018;89;21086;-72
2022/06/11 07:17:06;;;;;;;17.12;11.05;;;;;;;27.61;27.77;99733.27;1601079;89;21059;-72
2022/06/11 07:19:43;;;;;;;11.63;9.73;;;;;;;27.69;28.12;99730.88;1600796;89;20980;-72
2022/06/11 07:22:21;;;;;;;14.38;10.45;;;;;;;27.79;27.52;99736.41;1600533;89;21047;-73
2022/06/11 07:24:47;;;;;;;12.07;9.73;;;;;;;27.86;28.06;99731.61;1613175;88;21118;-73
2022/06/11 07:27:18;;;;;;;13.43;10.20;;;;;;;27.89;28.39;99730.88;1627019;88;21582;-68
2022/06/11 07:29:54;;;;;;;13.13;10.20;;;;;;;27.94;28.15;99728.62;1625366;88;21074;-69
2022/06/11 07:32:21;;;;;;;15.38;7.17;;;;;;;28.02;28.19;99736.45;1618375;88;21109;-68
2022/06/11 07:34:48;;;;;;;7.47;5.47;;;;;;;28.12;26.90;99730.37;1598305;89;21139;-69
2022/06/11 07:37:15;;;;;;;9.30;4.60;;;;;;;28.19;26.65;99724.98;1601069;88;21135;-69
2022/06/11 07:39:43;;;;;;;6.37;4.03;;;;;;;28.21;26.40;99732.89;1613237;88;21340;-70
2022/06/11 07:42:10;;;;;;;3.87;3.52;;;;;;;28.28;26.11;99736.61;1606120;88;20951;-69
2022/06/11 07:44:38;;;;;;;6.87;5.80;;;;;;;28.26;25.18;99729.25;1620056;88;21105;-68
2022/06/11 07:47:05;;;;;;;5.97;5.37;;;;;;;28.19;25.71;99727.75;1593476;88;21114;-70
2022/06/11 07:49:32;;;;;;;9.23;7.53;;;;;;;28.22;26.08;99724.81;1625282;88;21607;-72
2022/06/11 07:51:59;;;;;;;7.50;6.45;;;;;;;28.28;26.14;99726.93;1602220;88;21186;-76
2022/06/11 07:54:26;;;;;;;6.60;5.35;;;;;;;28.34;25.90;99721.90;1593085;88;21548;-75
2022/06/11 07:56:53;;;;;;;9.13;5.08;;;;;;;28.44;26.10;99726.83;1619648;88;21822;-76
2022/06/11 07:59:20;;;;;;;8.63;6.80;;;;;;;28.55;26.14;99723.64;1599720;89;20997;-74
2022/06/11 08:01:47;;;;;;;9.63;5.87;;;;;;;28.66;26.14;99727.98;1599683;89;21050;-74
2022/06/11 08:04:13;;;;;;;5.58;3.50;;;;;;;28.72;25.83;99721.00;1599266;89;21636;-75
2022/06/11 08:06:42;;;;;;;6.37;5.10;;;;;;;28.77;25.51;99722.88;1598615;89;20994;-75
2022/06/11 08:09:11;;;;;;;12.53;6.60;;;;;;;28.78;25.48;99728.61;1598230;89;21208;-75
2022/06/11 08:11:38;;;;;;;7.50;5.95;;;;;;;28.82;25.70;99724.53;1598425;89;21150;-75
2022/06/11 08:14:05;;;;;;;8.13;5.25;;;;;;;28.85;25.72;99726.55;1598271;89;21104;-75
2022/06/11 08:16:33;;;;;;;11.57;6.10;;;;;;;28.90;25.67;99730.39;1598205;89;21122;-75
2022/06/11 08:19:00;;;;;;;8.93;6.05;;;;;;;28.94;25.59;99732.63;1598138;89;21555;-74
2022/06/11 08:21:29;;;;;;;11.85;7.72;;;;;;;28.95;25.31;99733.66;1598017;89;21177;-75
2022/06/11 08:23:55;;;;;;;10.32;6.92;;;;;;;28.88;25.57;99726.60;1598197;89;21623;-74
2022/06/11 08:26:23;;;;;;;12.95;7.97;;;;;;;28.90;25.21;99729.81;1594426;89;21181;-75
2022/06/11 08:28:50;;;;;;;7.28;6.55;;;;;;;28.91;25.13;99723.69;1595351;89;21230;-75
2022/06/11 08:31:17;;;;;;;8.65;7.15;;;;;;;28.94;25.19;99726.51;1607448;89;21040;-76
2022/06/11 08:33:43;;;;;;;13.65;7.30;;;;;;;29.02;25.14;99726.02;1607742;89;21061;-75
2022/06/11 08:36:09;;;;;;;7.90;7.10;;;;;;;29.07;25.24;99726.28;1607700;89;21649;-74
2022/06/11 08:38:37;;;;;;;8.05;6.15;;;;;;;29.06;25.19;99722.74;1607632;89;21402;-75
2022/06/11 08:41:12;;;;;;;8.58;6.47;;;;;;;28.99;25.75;99722.03;1607865;89;21248;-74
2022/06/11 08:43:41;;;;;;;14.15;7.10;;;;;;;29.04;25.67;99723.11;1586265;89;21113;-75
2022/06/11 08:46:12;;;;;;;7.95;5.83;;;;;;;29.12;25.45;99719.05;1586717;89;20997;-75
2022/06/11 08:49:03;;;;;;;9.43;6.92;;;;;;;29.20;25.42;99722.15;1586248;89;21046;-74
2022/06/11 08:51:44;;;;;;;10.63;6.80;;;;;;;29.23;25.12;99716.66;1607791;89;21610;-74
2022/06/11 08:54:15;;;;;;;10.63;6.55;;;;;;;29.29;25.23;99722.09;1607519;89;21272;-75
2022/06/11 08:57:15;;;;;;;10.15;5.83;;;;;;;29.40;25.39;99718.89;1606552;89;21163;-74
2022/06/11 08:59:59;;;;;;;8.20;5.35;;;;;;;29.50;25.50;99711.13;1607694;89;21106;-77
2022/06/11 09:02:40;;;;;;;10.70;6.62;;;;;;;29.60;25.44;99704.30;1607802;89;21044;-74
2022/06/11 09:05:33;;;;;;;12.23;5.72;;;;;;;29.61;25.18;99707.88;1607595;89;21089;-74
2022/06/11 09:08:40;;;;;;;9.20;5.67;;;;;;;29.64;25.19;99711.30;1603438;89;21196;-74
2022/06/11 09:11:42;;;;;;;5.90;4.85;;;;;;;29.68;24.66;99712.95;1595831;90;21100;-75
2022/06/11 09:14:29;;;;;;;5.60;5.10;;;;;;;29.69;24.52;99706.81;1595959;89;21070;-74
2022/06/11 09:17:26;;;;;;;5.20;4.78;;;;;;;29.69;24.41;99702.66;1595954;90;21581;-75
2022/06/11 09:20:13;;;;;;;7.45;6.20;;;;;;;29.68;24.25;99702.44;1590211;89;21137;-75
2022/06/11 09:23:00;;;;;;;9.83;5.80;;;;;;;29.72;24.45;99701.89;1600595;89;21498;-73
2022/06/11 09:26:01;;;;;;;14.07;6.33;;;;;;;29.81;24.55;99691.30;1608888;89;21226;-74
2022/06/11 09:28:54;;;;;;;7.50;5.85;;;;;;;29.92;24.44;99702.55;1609618;88;21088;-75
2022/06/11 09:31:45;;;;;;;5.97;5.25;;;;;;;30.01;23.70;99701.66;1609707;89;21611;-74
2022/06/11 09:34:17;;;;;;;6.03;5.17;;;;;;;30.10;23.54;99697.99;1610385;89;21132;-74
2022/06/11 09:36:56;;;;;;;6.77;4.50;;;;;;;30.20;23.36;99693.95;1610062;89;21252;-75
2022/06/11 09:39:31;;;;;;;5.75;5.17;;;;;;;30.29;23.21;99695.02;1609359;89;20999;-75
2022/06/11 09:42:15;;;;;;;8.00;6.17;;;;;;;30.37;23.00;99693.09;1610576;89;21555;-74
2022/06/11 09:45:01;;;;;;;5.70;5.20;;;;;;;30.39;23.13;99685.19;1610350;87;21038;-75
2022/06/11 09:47:36;;;;;;;10.28;5.92;;;;;;;30.37;23.46;99686.16;1610487;89;21085;-75
2022/06/11 09:50:29;;;;;;;6.97;5.70;;;;;;;30.47;23.83;99686.88;1609519;89;21125;-76
2022/06/11 09:53:13;;;;;;;7.30;5.80;;;;;;;30.56;23.54;99684.56;1610582;89;21022;-74
2022/06/11 09:55:59;;;;;;;7.70;6.22;;;;;;;30.57;23.26;99677.25;1610317;89;21574;-74
2022/06/11 09:58:49;;;;;;;6.92;5.42;;;;;;;30.56;23.68;99690.13;1588197;90;21532;-73
2022/06/11 10:01:21;;;;;;;6.95;4.85;;;;;;;30.59;23.46;99690.17;1609650;89;21038;-74
2022/06/11 10:03:56;;;;;;;14.13;6.33;;;;;;;30.65;22.77;99690.00;1610660;89;21324;-74
2022/06/11 10:06:48;;;;;;;9.13;5.28;;;;;;;30.60;23.22;99679.25;1605527;89;21049;-73
2022/06/11 10:09:28;;;;;;;7.05;5.53;;;;;;;30.69;23.10;99680.34;1609098;89;21045;-74
2022/06/11 10:12:13;;;;;;;8.28;5.05;;;;;;;30.75;22.78;99678.19;1609841;89;21037;-75
2022/06/11 10:14:49;;;;;;;7.87;5.60;;;;;;;30.74;22.71;99681.37;1610651;89;21053;-74
2022/06/11 10:17:40;;;;;;;6.47;5.58;;;;;;;30.65;22.45;99678.09;1587774;90;21179;-75
2022/06/11 10:20:30;;;;;;;7.65;5.87;;;;;;;30.56;22.48;99681.20;1609587;89;21005;-78
2022/06/11 10:23:14;;;;;;;5.15;4.55;;;;;;;30.51;22.62;99679.37;1610406;89;21558;-74
2022/06/11 10:26:06;;;;;;;10.08;7.00;;;;;;;30.50;22.58;99680.58;1610050;89;20961;-73
2022/06/11 10:28:54;;;;;;;12.88;6.53;;;;;;;30.44;22.91;99670.97;1584282;90;21672;-75
2022/06/11 10:31:27;;;;;;;13.30;7.17;;;;;;;30.49;23.01;99666.48;1580955;90;21143;-74
2022/06/11 10:34:01;;;;;;;11.20;5.22;;;;;;;30.69;22.94;99677.56;1594565;90;21071;-74
2022/06/11 10:36:38;;;;;;;7.42;5.65;;;;;;;30.89;22.54;99669.16;1607849;89;21604;-74
2022/06/11 10:39:32;;;;;;;8.55;5.97;;;;;;;30.97;22.52;99668.63;1607514;89;20989;-74
2022/06/11 10:42:13;;;;;;;20.82;5.30;;;;;;;31.01;22.41;99666.66;1607602;89;21073;-75
2022/06/11 10:44:48;;;;;;;5.95;5.00;;;;;;;31.09;21.98;99659.98;1609193;89;21326;-74
2022/06/11 10:47:45;;;;;;;6.10;5.35;;;;;;;31.21;22.48;99662.45;1587486;89;21569;-74
2022/06/11 10:50:18;;;;;;;5.25;4.75;;;;;;;31.36;21.98;99660.53;1608923;89;20957;-74
2022/06/11 10:53:06;;;;;;;9.00;5.90;;;;;;;31.40;22.18;99653.00;1601079;89;21065;-74
2022/06/11 10:55:50;;;;;;;11.12;4.80;;;;;;;31.42;21.72;99652.00;1608958;89;21600;-77
2022/06/11 10:58:43;;;;;;;12.30;5.30;;;;;;;31.47;22.14;99662.75;1609103;89;21123;-74
2022/06/11 11:01:20;;;;;;;;;;;;;;;31.61;22.04;99656.50;1611448;89;21545;-75
2022/06/11 11:04:30;;;;;;;7.03;5.05;;;;;;;31.72;21.83;99650.36;1594075;90;20217;-75
2022/06/11 11:07:19;;;;;;;12.23;6.22;;;;;;;31.79;21.73;99652.59;1529245;90;21126;-77
2022/06/11 11:09:47;;;;;;;8.60;6.40;;;;;;;31.77;21.55;99652.77;1609324;89;21089;-73
2022/06/11 11:12:32;;;;;;;12.93;5.72;;;;;;;31.72;20.99;99648.97;1608392;89;21156;-75
2022/06/11 11:15:03;;;;;;;7.65;5.92;;;;;;;31.62;20.82;99648.34;1607921;89;21009;-75
2022/06/11 11:17:32;;;;;;;12.95;5.50;;;;;;;31.55;21.02;99638.78;1607716;89;21543;-74
2022/06/11 11:20:39;;;;;;;6.62;5.50;;;;;;;31.61;21.23;99640.59;1607690;89;21053;-75
2022/06/11 11:23:22;;;;;;;9.55;5.62;;;;;;;31.69;21.22;99640.03;1606465;89;21155;-75
2022/06/11 11:25:53;;;;;;;9.20;6.08;;;;;;;31.82;20.83;99635.69;1607884;89;21109;-75
2022/06/11 11:28:27;;;;;;;9.25;5.12;;;;;;;31.81;20.27;99641.84;1606894;89;21001;-74
2022/06/11 11:31:06;;;;;;;7.30;5.00;;;;;;;31.70;20.37;99643.83;1609115;89;21085;-75
2022/06/11 11:33:37;;;;;;;7.75;4.92;;;;;;;31.60;20.69;99632.07;1609000;89;21178;-74
2022/06/11 11:36:21;;;;;;;6.53;4.67;;;;;;;31.64;20.66;99636.24;1609281;89;21089;-74
2022/06/11 11:39:17;;;;;;;8.53;6.83;;;;;;;31.69;20.83;99626.93;1609341;89;21279;-75
2022/06/11 11:42:10;;;;;;;7.12;5.70;;;;;;;31.75;20.68;99633.68;1608659;88;21070;-74
2022/06/11 11:44:49;;;;;;;7.08;5.35;;;;;;;31.91;20.50;99624.39;1609187;89;21061;-76
2022/06/11 11:47:34;;;;;;;8.38;5.95;;;;;;;32.02;20.25;99622.42;1609256;89;21293;-73
2022/06/11 11:50:16;;;;;;;6.37;5.60;;;;;;;32.07;20.20;99617.06;1608936;89;21585;-73
2022/06/11 11:52:52;;;;;;;9.20;5.05;;;;;;;32.17;20.40;99617.70;1609544;89;21230;-74
2022/06/11 11:55:32;;;;;;;5.58;4.45;;;;;;;32.19;20.08;99612.52;1608779;89;21037;-73